Time;durP1;ratioP1;P1;durP2;ratioP2;P2;SDS_P1;SDS_P2;PMS_P1;PMS_P2;Temp;Humidity;BMP_temperature;BMP_pressure;BME280_temperature;BME280_humidity;BME280_pressure;Samples;Min_cycle;Max_cycle;Signal;HPM_P1;HPM_P2
2022/09/04 00:02:29;;;;;;;2.08;1.98;;;18.70;99.90;;;;;;5075359;28;20307;-94
2022/09/04 00:05:06;;;;;;;2.67;2.47;;;18.80;99.90;;;;;;5075445;28;20224;-94
2022/09/04 00:07:46;;;;;;;2.58;2.47;;;18.70;99.90;;;;;;5075645;28;20220;-94
2022/09/04 00:10:22;;;;;;;2.28;2.08;;;18.70;99.90;;;;;;5075503;28;20288;-94
2022/09/04 00:12:54;;;;;;;1.75;1.65;;;18.80;99.90;;;;;;5075149;28;20320;-94
2022/09/04 00:15:27;;;;;;;2.55;2.20;;;18.80;99.90;;;;;;5075548;28;20209;-94
2022/09/04 00:18:03;;;;;;;2.63;2.33;;;18.90;99.90;;;;;;5075509;28;20232;-94
2022/09/04 00:20:41;;;;;;;2.72;1.83;;;18.80;99.90;;;;;;5074878;28;20292;-93
2022/09/04 00:23:17;;;;;;;1.90;1.80;;;18.90;99.90;;;;;;5075392;28;20235;-96
2022/09/04 00:25:55;;;;;;;2.40;2.22;;;18.90;99.90;;;;;;5075238;28;20204;-94
2022/09/04 00:28:34;;;;;;;1.92;1.83;;;19.00;99.90;;;;;;5075048;28;20209;-94
2022/09/04 00:31:15;;;;;;;1.70;1.60;;;19.00;99.90;;;;;;5074794;28;20221;-94
2022/09/04 00:33:54;;;;;;;2.88;2.08;;;19.00;99.90;;;;;;5074715;28;20203;-93
2022/09/04 00:36:27;;;;;;;3.00;2.53;;;19.00;99.90;;;;;;5075329;28;20236;-94
2022/09/04 00:39:00;;;;;;;2.45;2.25;;;19.00;99.90;;;;;;5074679;28;20239;-93
2022/09/04 00:41:32;;;;;;;2.25;1.83;;;19.00;99.90;;;;;;5074657;28;20221;-94
2022/09/04 00:44:31;;;;;;;2.10;2.00;;;19.00;99.90;;;;;;5074947;28;20205;-94
2022/09/04 00:47:19;;;;;;;2.58;2.38;;;18.90;99.90;;;;;;5074613;28;20232;-94
2022/09/04 00:50:26;;;;;;;2.50;2.30;;;18.90;99.90;;;;;;5074386;28;20295;-93
2022/09/04 00:53:22;;;;;;;2.60;1.92;;;18.90;99.90;;;;;;5038746;28;20315;-94
2022/09/04 00:56:04;;;;;;;2.38;2.17;;;19.00;99.90;;;;;;5075061;28;20209;-94
2022/09/04 00:59:02;;;;;;;2.17;1.98;;;19.00;99.90;;;;;;5074479;28;20310;-94
2022/09/04 01:01:30;;;;;;;2.08;1.90;;;18.90;99.90;;;;;;5073401;28;20235;-95
2022/09/04 01:04:24;;;;;;;2.65;2.45;;;18.90;99.90;;;;;;5074864;28;20205;-94
2022/09/04 01:07:16;;;;;;;1.92;1.67;;;18.80;99.90;;;;;;5089431;28;20212;-93
2022/09/04 01:10:08;;;;;;;1.77;1.67;;;18.80;99.90;;;;;;5085916;28;20212;-94
2022/09/04 01:12:42;;;;;;;1.88;1.77;;;18.80;99.90;;;;;;5064660;28;20252;-94
2022/09/04 01:15:19;;;;;;;2.20;2.10;;;18.80;99.90;;;;;;5075079;28;20204;-94
2022/09/04 01:17:58;;;;;;;1.83;1.73;;;18.80;99.90;;;;;;5074707;28;20291;-94
2022/09/04 01:20:38;;;;;;;2.60;1.75;;;18.80;99.90;;;;;;5073810;28;20284;-94
2022/09/04 01:23:35;;;;;;;1.65;1.55;;;18.90;99.90;;;;;;5073641;28;20264;-94
2022/09/04 01:26:12;;;;;;;1.58;1.48;;;18.90;99.90;;;;;;5075156;28;20209;-94
2022/09/04 01:28:55;;;;;;;1.77;1.67;;;18.90;99.90;;;;;;5086810;28;20201;-94
2022/09/04 01:31:34;;;;;;;5.85;1.85;;;18.90;99.90;;;;;;5086829;28;20221;-93
2022/09/04 01:34:16;;;;;;;2.15;1.95;;;18.90;99.90;;;;;;5075390;28;20213;-92
2022/09/04 01:36:53;;;;;;;1.63;1.55;;;18.90;99.90;;;;;;5074191;28;20264;-93
2022/09/04 01:39:24;;;;;;;2.28;1.63;;;18.90;99.90;;;;;;5073150;28;20290;-94
2022/09/04 01:42:00;;;;;;;1.90;1.80;;;18.90;99.90;;;;;;5073168;28;20225;-94
2022/09/04 01:44:30;;;;;;;2.00;1.80;;;18.90;99.90;;;;;;5074104;28;20278;-95
2022/09/04 01:47:09;;;;;;;1.73;1.63;;;18.90;99.90;;;;;;5073873;28;20201;-94
2022/09/04 01:49:42;;;;;;;2.25;2.05;;;18.90;99.90;;;;;;5073210;28;20209;-94
2022/09/04 01:52:22;;;;;;;3.60;2.40;;;18.70;99.90;;;;;;5073121;28;20312;-93
2022/09/04 01:54:55;;;;;;;2.00;1.90;;;18.60;99.90;;;;;;5073233;28;20239;-94
2022/09/04 01:57:46;;;;;;;2.15;2.05;;;18.50;99.90;;;;;;5073371;28;20236;-94
2022/09/04 02:00:17;;;;;;;1.90;1.80;;;18.40;99.90;;;;;;5073165;28;20228;-94
2022/09/04 02:02:58;;;;;;;2.22;2.05;;;18.30;99.90;;;;;;5073058;28;20220;-94
2022/09/04 02:05:34;;;;;;;2.33;2.22;;;18.30;99.90;;;;;;5073133;28;20205;-94
2022/09/04 02:08:17;;;;;;;2.67;2.20;;;18.10;99.90;;;;;;5073191;28;20217;-94
2022/09/04 02:10:50;;;;;;;2.45;2.25;;;18.10;99.90;;;;;;5072917;28;20224;-94
2022/09/04 02:13:28;;;;;;;2.17;1.98;;;18.00;99.90;;;;;;5073628;28;20201;-93
2022/09/04 02:16:13;;;;;;;8.20;2.60;;;18.00;99.90;;;;;;5073361;28;20197;-93
2022/09/04 02:18:55;;;;;;;2.30;2.20;;;17.90;99.90;;;;;;5072874;28;20205;-94
2022/09/04 02:21:31;;;;;;;2.38;2.17;;;17.90;99.90;;;;;;5074376;28;20300;-93
2022/09/04 02:24:09;;;;;;;2.33;2.15;;;17.90;99.90;;;;;;5078319;28;20263;-93
2022/09/04 02:26:44;;;;;;;2.22;2.05;;;17.90;99.90;;;;;;5079092;28;20208;-92
2022/09/04 02:29:25;;;;;;;3.20;2.95;;;17.80;99.90;;;;;;5079110;28;20234;-93
2022/09/04 02:31:58;;;;;;;2.33;2.13;;;17.90;99.90;;;;;;5073973;28;20292;-93
2022/09/04 02:34:35;;;;;;;4.18;2.63;;;17.80;99.90;;;;;;5072761;28;20209;-94
2022/09/04 02:37:13;;;;;;;2.63;2.42;;;17.80;99.90;;;;;;5072857;28;20289;-93
2022/09/04 02:39:51;;;;;;;1.98;1.85;;;17.80;99.90;;;;;;5072563;28;20283;-96
2022/09/04 02:42:24;;;;;;;1.73;1.63;;;17.90;99.90;;;;;;5072489;28;20228;-94
2022/09/04 02:45:09;;;;;;;2.30;2.05;;;17.80;99.90;;;;;;5072553;28;20240;-95
2022/09/04 02:47:47;;;;;;;1.50;1.45;;;17.80;99.90;;;;;;5072443;28;20296;-93
2022/09/04 02:50:32;;;;;;;2.08;1.98;;;17.80;99.90;;;;;;5072388;28;20235;-93
2022/09/04 02:53:10;;;;;;;2.10;2.00;;;17.90;99.90;;;;;;5073147;28;20213;-93
2022/09/04 02:56:08;;;;;;;1.65;1.55;;;17.90;99.90;;;;;;5072859;28;20215;-93
2022/09/04 02:58:48;;;;;;;1.50;1.50;;;17.90;99.90;;;;;;5072139;28;20204;-93
2022/09/04 03:01:24;;;;;;;1.92;1.70;;;17.90;99.90;;;;;;5072528;28;20232;-94
2022/09/04 03:04:02;;;;;;;1.88;1.77;;;17.90;99.90;;;;;;5072446;28;20208;-94
2022/09/04 03:06:44;;;;;;;2.13;1.95;;;17.90;99.90;;;;;;5072589;28;20285;-94
2022/09/04 03:09:17;;;;;;;2.25;2.05;;;17.90;99.90;;;;;;5072294;28;20240;-93
2022/09/04 03:11:52;;;;;;;2.10;2.00;;;18.00;99.90;;;;;;5072379;28;20240;-95
2022/09/04 03:14:26;;;;;;;1.70;1.60;;;18.00;99.90;;;;;;5071944;28;20235;-94
2022/09/04 03:17:02;;;;;;;1.95;1.83;;;18.00;99.90;;;;;;5073051;28;20235;-93
2022/09/04 03:19:39;;;;;;;1.70;1.60;;;18.00;99.90;;;;;;5072341;28;20205;-94
2022/09/04 03:22:12;;;;;;;2.08;1.98;;;18.00;99.90;;;;;;5072559;28;20297;-94
2022/09/04 03:24:57;;;;;;;1.33;1.25;;;18.00;99.90;;;;;;5072288;28;20292;-94
2022/09/04 03:27:27;;;;;;;2.10;1.70;;;18.00;99.90;;;;;;5072200;28;20205;-93
2022/09/04 03:30:02;;;;;;;1.90;1.80;;;18.00;99.90;;;;;;5071954;28;20224;-93
2022/09/04 03:32:40;;;;;;;1.70;1.58;;;18.00;99.90;;;;;;5072423;28;20225;-94
2022/09/04 03:35:16;;;;;;;1.60;1.50;;;18.00;99.90;;;;;;5072448;28;20209;-94
2022/09/04 03:37:56;;;;;;;1.60;1.50;;;18.00;99.90;;;;;;5072457;28;20205;-94
2022/09/04 03:40:36;;;;;;;1.75;1.65;;;18.00;99.90;;;;;;5084345;28;20242;-93
2022/09/04 03:43:37;;;;;;;2.15;1.90;;;18.00;99.90;;;;;;5084270;28;20233;-94
2022/09/04 03:46:16;;;;;;;1.60;1.60;;;18.00;99.90;;;;;;5073031;28;20256;-93
2022/09/04 03:48:58;;;;;;;2.03;1.83;;;18.00;99.90;;;;;;5075457;28;20227;-93
2022/09/04 03:51:38;;;;;;;2.03;1.92;;;18.10;99.90;;;;;;5075468;28;20320;-94
2022/09/04 03:54:23;;;;;;;1.90;1.80;;;18.10;99.90;;;;;;5075293;28;20285;-94
2022/09/04 03:57:03;;;;;;;2.53;2.28;;;18.10;99.90;;;;;;5075521;28;20295;-95
2022/09/04 03:59:52;;;;;;;2.03;1.90;;;18.10;99.90;;;;;;5075446;28;20240;-94
2022/09/04 04:02:30;;;;;;;2.33;2.03;;;18.10;99.90;;;;;;5075165;28;20296;-95
2022/09/04 04:05:28;;;;;;;2.53;2.33;;;18.00;99.90;;;;;;5075090;28;20213;-93
2022/09/04 04:08:12;;;;;;;1.88;1.77;;;17.80;99.90;;;;;;5074194;28;20201;-93
2022/09/04 04:10:55;;;;;;;2.75;2.55;;;17.90;99.90;;;;;;5075009;28;20246;-94
2022/09/04 04:13:56;;;;;;;2.78;2.10;;;17.80;99.90;;;;;;5075023;28;20223;-94
2022/09/04 04:16:39;;;;;;;1.95;1.85;;;17.80;99.90;;;;;;5064537;28;20297;-94
2022/09/04 04:19:41;;;;;;;1.90;1.80;;;17.80;99.90;;;;;;5075037;28;20212;-93
2022/09/04 04:22:34;;;;;;;2.53;1.98;;;17.80;99.90;;;;;;5069916;28;20318;-94
2022/09/04 04:25:25;;;;;;;1.70;1.60;;;17.80;99.90;;;;;;5075007;28;20239;-94
2022/09/04 04:28:15;;;;;;;2.10;1.90;;;17.80;99.90;;;;;;5075237;28;20287;-94
2022/09/04 04:30:48;;;;;;;1.90;1.80;;;17.80;99.90;;;;;;5074701;28;20293;-94
2022/09/04 04:33:42;;;;;;;2.03;1.88;;;17.80;99.90;;;;;;5075129;28;20213;-94
2022/09/04 04:36:24;;;;;;;1.52;1.42;;;17.80;99.90;;;;;;5075285;28;20202;-94
2022/09/04 04:39:16;;;;;;;1.83;1.73;;;17.80;99.90;;;;;;5074985;28;20215;-93
2022/09/04 04:42:06;;;;;;;1.77;1.67;;;17.70;99.90;;;;;;5075087;28;20224;-94
2022/09/04 04:48:11;;;;;;;1.52;1.42;;;17.60;99.90;;;;;;5041547;28;20232;-93
2022/09/04 04:50:48;;;;;;;2.70;2.10;;;17.50;99.90;;;;;;5074230;28;20297;-93
2022/09/04 04:53:27;;;;;;;1.75;1.65;;;17.50;99.90;;;;;;5074886;28;20205;-94
2022/09/04 04:56:03;;;;;;;2.05;1.95;;;17.50;99.90;;;;;;5076274;28;20204;-93
2022/09/04 04:58:49;;;;;;;2.03;1.92;;;17.50;99.90;;;;;;5085831;28;20216;-93
2022/09/04 05:01:28;;;;;;;2.35;2.25;;;17.50;99.90;;;;;;5083252;28;20247;-93
2022/09/04 05:04:09;;;;;;;2.33;2.10;;;17.50;99.90;;;;;;5085481;28;20347;-93
2022/09/04 05:06:45;;;;;;;2.30;2.13;;;17.50;99.90;;;;;;5075903;28;20205;-94
2022/09/04 05:09:21;;;;;;;2.00;1.90;;;17.40;99.90;;;;;;5074688;28;20216;-93
2022/09/04 05:12:01;;;;;;;1.58;1.48;;;17.30;99.90;;;;;;5073944;28;20292;-93
2022/09/04 05:14:41;;;;;;;3.05;2.60;;;17.40;99.90;;;;;;5074230;28;20204;-93
2022/09/04 05:17:23;;;;;;;2.95;2.30;;;17.40;99.90;;;;;;5073737;28;20235;-93
2022/09/04 05:19:59;;;;;;;2.33;2.13;;;17.40;99.90;;;;;;5073893;28;20205;-94
2022/09/04 05:22:35;;;;;;;2.42;2.22;;;17.40;99.90;;;;;;5073827;28;20252;-93
2022/09/04 05:25:12;;;;;;;2.58;2.38;;;17.40;99.90;;;;;;5073785;28;20264;-94
2022/09/04 05:27:58;;;;;;;2.78;2.47;;;17.40;99.90;;;;;;5073729;28;20296;-93
2022/09/04 05:30:39;;;;;;;2.70;2.00;;;17.50;99.90;;;;;;5073533;28;20209;-94
2022/09/04 05:33:15;;;;;;;2.40;2.03;;;17.50;99.90;;;;;;5073261;28;20300;-94
2022/09/04 05:35:50;;;;;;;4.10;2.42;;;17.50;99.90;;;;;;5073795;28;20208;-92
2022/09/04 05:38:28;;;;;;;2.25;2.00;;;17.50;99.90;;;;;;5073172;28;20289;-92
2022/09/04 05:41:06;;;;;;;1.83;1.73;;;17.50;99.90;;;;;;5073451;28;20224;-93
2022/09/04 05:43:50;;;;;;;2.65;2.45;;;17.60;99.90;;;;;;5073137;28;20222;-93
2022/09/04 05:46:33;;;;;;;2.45;2.25;;;17.70;99.90;;;;;;5073653;28;20233;-92
2022/09/04 05:49:11;;;;;;;2.45;1.92;;;17.70;99.90;;;;;;5073520;28;20238;-94
2022/09/04 05:52:01;;;;;;;2.03;1.92;;;17.80;99.90;;;;;;5084387;28;20237;-94
2022/09/04 05:54:57;;;;;;;1.67;1.58;;;17.80;99.90;;;;;;5085802;28;20197;-94
2022/09/04 05:57:38;;;;;;;2.10;2.00;;;17.80;99.90;;;;;;5074158;28;20208;-93
2022/09/04 06:00:15;;;;;;;2.30;2.10;;;17.90;99.90;;;;;;5073225;28;20205;-94
2022/09/04 06:03:02;;;;;;;1.40;1.40;;;17.90;99.90;;;;;;5073443;28;20277;-94
2022/09/04 06:05:44;;;;;;;1.90;1.80;;;18.00;99.90;;;;;;5073046;28;20291;-94
2022/09/04 06:08:26;;;;;;;1.67;1.58;;;18.00;99.90;;;;;;5073307;28;20233;-93
2022/09/04 06:11:27;;;;;;;1.90;1.80;;;18.10;99.90;;;;;;5072962;28;20307;-94
2022/09/04 06:14:34;;;;;;;1.85;1.75;;;18.20;99.90;;;;;;5073308;28;20338;-94
2022/09/04 06:17:26;;;;;;;2.08;1.88;;;18.20;99.90;;;;;;5042560;28;20205;-94
2022/09/04 06:20:39;;;;;;;1.30;1.27;;;18.30;99.90;;;;;;5073271;28;20247;-93
2022/09/04 06:24:04;;;;;;;1.60;1.50;;;18.40;99.90;;;;;;5072882;28;20221;-93
2022/09/04 06:26:51;;;;;;;1.80;1.70;;;18.40;99.90;;;;;;5073219;28;20209;-93
2022/09/04 06:29:51;;;;;;;2.10;1.90;;;18.50;99.90;;;;;;5072872;28;20225;-93
2022/09/04 06:32:58;;;;;;;1.65;1.55;;;18.50;99.90;;;;;;5073214;28;20233;-93
2022/09/04 06:35:50;;;;;;;1.70;1.60;;;18.60;99.90;;;;;;5051319;28;20209;-93
2022/09/04 06:38:35;;;;;;;2.35;2.15;;;18.70;99.90;;;;;;5072201;28;20262;-94
2022/09/04 06:41:34;;;;;;;1.67;1.58;;;18.70;99.90;;;;;;5073063;28;20248;-94
2022/09/04 06:44:40;;;;;;;3.78;1.95;;;18.80;99.90;;;;;;5072993;28;20271;-94
2022/09/04 06:47:49;;;;;;;3.88;2.65;;;18.90;99.90;;;;;;4991425;28;20266;-94
2022/09/04 06:50:24;;;;;;;2.13;2.03;;;18.90;99.90;;;;;;4990712;28;20227;-93
2022/09/04 06:53:05;;;;;;;1.67;1.58;;;19.00;99.90;;;;;;4991067;28;20253;-92
2022/09/04 06:55:43;;;;;;;2.00;1.73;;;19.10;99.90;;;;;;4991599;28;20295;-94
2022/09/04 06:58:37;;;;;;;1.95;1.80;;;19.20;99.90;;;;;;4991384;28;20272;-94
2022/09/04 07:01:10;;;;;;;1.90;1.30;;;19.30;99.90;;;;;;4989576;28;20255;-93
2022/09/04 07:03:54;;;;;;;1.50;1.40;;;19.40;99.90;;;;;;4990809;28;20259;-93
2022/09/04 07:06:29;;;;;;;1.20;1.20;;;19.50;99.90;;;;;;4991146;28;20255;-93
2022/09/04 07:09:09;;;;;;;1.20;1.20;;;19.60;99.90;;;;;;4990996;28;20211;-94
2022/09/04 07:11:56;;;;;;;1.48;1.40;;;19.60;99.90;;;;;;4991559;28;20228;-95
2022/09/04 07:14:42;;;;;;;1.35;1.25;;;19.60;99.90;;;;;;4992055;28;20204;-93
2022/09/04 07:17:18;;;;;;;1.77;1.67;;;19.70;99.90;;;;;;4991047;28;20223;-94
2022/09/04 07:19:58;;;;;;;1.23;1.23;;;19.80;99.90;;;;;;4990955;28;20239;-94
2022/09/04 07:22:47;;;;;;;1.30;1.30;;;19.90;99.90;;;;;;4998571;28;20251;-94
2022/09/04 07:25:25;;;;;;;1.58;1.38;;;20.00;99.90;;;;;;5076183;28;20221;-94
2022/09/04 07:28:26;;;;;;;1.00;1.00;;;20.20;99.90;;;;;;5076189;28;20232;-94
2022/09/04 07:31:04;;;;;;;1.10;1.10;;;20.30;99.90;;;;;;5076152;28;20221;-94
2022/09/04 07:33:45;;;;;;;1.02;1.02;;;20.40;99.90;;;;;;5076142;28;20229;-93
2022/09/04 07:36:24;;;;;;;1.40;1.40;;;20.60;99.90;;;;;;5075973;28;20224;-93
2022/09/04 07:39:05;;;;;;;1.40;1.30;;;20.70;99.90;;;;;;5075662;28;20204;-93
2022/09/04 07:41:44;;;;;;;1.90;1.80;;;20.90;99.90;;;;;;5075873;28;20252;-95
2022/09/04 07:44:23;;;;;;;4.03;2.70;;;21.00;99.90;;;;;;5075823;28;20231;-94
2022/09/04 07:47:12;;;;;;;2.53;2.33;;;21.20;99.90;;;;;;5075927;28;20205;-94
2022/09/04 07:49:51;;;;;;;2.90;2.05;;;21.40;99.90;;;;;;5075613;28;20243;-93
2022/09/04 07:52:32;;;;;;;3.13;2.63;;;21.60;99.90;;;;;;5076582;28;20256;-94
2022/09/04 07:55:17;;;;;;;2.80;2.60;;;21.80;99.90;;;;;;5076725;28;20201;-94
2022/09/04 07:58:07;;;;;;;2.13;2.03;;;22.10;99.90;;;;;;5081428;28;20217;-93
2022/09/04 08:00:43;;;;;;;2.78;2.58;;;22.40;99.90;;;;;;5081444;28;20268;-93
2022/09/04 08:03:36;;;;;;;2.70;1.98;;;22.50;99.90;;;;;;5080164;28;20294;-93
2022/09/04 08:06:27;;;;;;;2.60;2.40;;;22.60;99.90;;;;;;5076729;28;20234;-94
2022/09/04 08:09:25;;;;;;;2.40;2.20;;;22.70;99.90;;;;;;5075750;28;20247;-94
2022/09/04 08:12:26;;;;;;;4.05;2.67;;;22.60;99.90;;;;;;5065377;28;20256;-93
2022/09/04 08:15:02;;;;;;;2.95;2.40;;;22.70;99.90;;;;;;5070155;28;20288;-94
2022/09/04 08:18:03;;;;;;;1.95;1.85;;;22.70;99.90;;;;;;5075892;28;20234;-92
2022/09/04 08:20:43;;;;;;;1.92;1.83;;;22.70;99.90;;;;;;5051574;28;20287;-92
2022/09/04 08:23:30;;;;;;;1.90;1.80;;;22.90;99.90;;;;;;5084977;28;20231;-93
2022/09/04 08:26:13;;;;;;;2.45;2.25;;;22.80;99.90;;;;;;5084672;28;20251;-92
2022/09/04 08:29:08;;;;;;;1.58;1.50;;;22.80;99.90;;;;;;5085182;28;20209;-93
2022/09/04 08:31:41;;;;;;;2.10;2.00;;;22.70;99.90;;;;;;5076348;28;20305;-94
2022/09/04 08:34:52;;;;;;;1.83;1.73;;;22.70;99.90;;;;;;5075861;28;20296;-93
2022/09/04 08:37:26;;;;;;;1.92;1.80;;;23.00;99.90;;;;;;5013291;28;20230;-94
2022/09/04 08:40:35;;;;;;;1.88;1.77;;;23.10;99.90;;;;;;5013201;28;20302;-94
2022/09/04 08:43:33;;;;;;;1.92;1.83;;;23.30;99.90;;;;;;5007258;28;20203;-93
2022/09/04 08:46:37;;;;;;;4.13;1.85;;;23.50;99.90;;;;;;5013197;28;20308;-94
2022/09/04 08:49:45;;;;;;;2.20;2.10;;;23.70;99.90;;;;;;5076500;28;20283;-93
2022/09/04 08:52:45;;;;;;;1.55;1.45;;;24.10;99.90;;;;;;5088121;28;20229;-93
2022/09/04 08:55:47;;;;;;;2.50;2.30;;;24.50;99.90;;;;;;5085212;28;20220;-93
2022/09/04 08:58:57;;;;;;;3.88;2.35;;;24.60;99.90;;;;;;5077029;28;20288;-93
2022/09/04 09:02:25;;;;;;;1.90;1.80;;;24.70;99.90;;;;;;5075027;28;20232;-94
2022/09/04 09:05:24;;;;;;;1.90;1.80;;;25.40;99.90;;;;;;5012712;28;20222;-93
2022/09/04 09:08:22;;;;;;;2.17;2.08;;;25.70;99.90;;;;;;5074091;28;20288;-92
2022/09/04 09:11:20;;;;;;;5.03;1.70;;;25.70;99.90;;;;;;5074251;28;20224;-92
2022/09/04 09:14:23;;;;;;;2.00;1.90;;;25.50;99.90;;;;;;5073992;28;20209;-92
2022/09/04 09:17:11;;;;;;;1.80;1.70;;;25.40;99.90;;;;;;5074032;28;20296;-93
2022/09/04 09:20:00;;;;;;;10.02;2.08;;;25.30;99.90;;;;;;5073843;28;20201;-94
2022/09/04 09:23:07;;;;;;;1.80;1.70;;;25.00;99.90;;;;;;5074130;28;20245;-93
2022/09/04 09:25:48;;;;;;;1.95;1.85;;;24.80;99.90;;;;;;5073513;28;20277;-93
2022/09/04 09:29:06;;;;;;;2.30;2.10;;;24.60;99.90;;;;;;5074207;28;20212;-94
2022/09/04 09:32:12;;;;;;;1.77;1.67;;;24.70;99.90;;;;;;5048394;28;20221;-93
2022/09/04 09:35:11;;;;;;;2.40;2.30;;;24.90;99.90;;;;;;5073604;28;20204;-92
2022/09/04 09:38:18;;;;;;;2.55;2.35;;;25.10;99.90;;;;;;5072867;28;20265;-94
2022/09/04 09:41:14;;;;;;;5.43;3.55;;;24.90;99.90;;;;;;5073617;28;20201;-94
2022/09/04 09:44:17;;;;;;;3.47;3.17;;;24.90;99.90;;;;;;5073100;28;20316;-93
2022/09/04 09:47:18;;;;;;;5.15;3.78;;;25.00;99.90;;;;;;5073764;28;20278;-92
2022/09/04 09:50:20;;;;;;;4.10;3.28;;;25.20;99.90;;;;;;5071312;28;20201;-93
2022/09/04 09:53:21;;;;;;;2.25;2.10;;;25.40;99.90;;;;;;5040829;28;20235;-93
2022/09/04 09:56:31;;;;;;;2.63;2.42;;;25.60;99.90;;;;;;5073524;28;20227;-94
2022/09/04 09:59:37;;;;;;;2.40;2.20;;;25.60;99.90;;;;;;5074420;28;20292;-94
2022/09/04 10:02:23;;;;;;;4.22;2.72;;;25.60;99.90;;;;;;5074020;28;20239;-94
2022/09/04 10:05:24;;;;;;;3.33;2.53;;;25.80;99.90;;;;;;5073243;28;20248;-94
2022/09/04 10:08:12;;;;;;;2.20;2.10;;;26.10;99.90;;;;;;5072836;28;20300;-92
2022/09/04 10:11:10;;;;;;;6.82;2.40;;;26.40;99.90;;;;;;5073070;28;20225;-93
2022/09/04 10:14:06;;;;;;;2.50;2.30;;;26.40;99.90;;;;;;5073518;28;20292;-93
2022/09/04 10:17:02;;;;;;;3.38;3.08;;;26.40;99.90;;;;;;5072951;28;20304;-93
2022/09/04 10:19:55;;;;;;;3.30;3.00;;;26.30;99.90;;;;;;5072665;28;20236;-93
2022/09/04 10:23:03;;;;;;;2.72;2.53;;;26.10;99.90;;;;;;5072950;28;20248;-93
2022/09/04 10:26:09;;;;;;;3.72;2.80;;;26.00;99.90;;;;;;5072948;28;20315;-93
2022/09/04 10:29:22;;;;;;;4.32;3.63;;;25.70;99.90;;;;;;5072082;28;20293;-93
2022/09/04 10:32:12;;;;;;;2.25;2.13;;;25.70;99.90;;;;;;5072582;28;20302;-93
2022/09/04 10:35:09;;;;;;;2.53;2.33;;;25.60;99.90;;;;;;5073037;28;20236;-93
2022/09/04 10:38:00;;;;;;;2.40;2.30;;;25.80;99.90;;;;;;5072306;28;20272;-92
2022/09/04 10:40:37;;;;;;;2.85;2.40;;;26.00;99.90;;;;;;5074623;28;20247;-93
2022/09/04 10:43:31;;;;;;;2.60;2.40;;;26.20;99.90;;;;;;5080128;28;20209;-93
2022/09/04 10:46:10;;;;;;;3.53;2.20;;;26.50;99.90;;;;;;5079050;28;20308;-93
2022/09/04 10:49:33;;;;;;;2.70;2.50;;;26.60;99.90;;;;;;5077728;28;20217;-93
2022/09/04 10:52:36;;;;;;;1.98;1.88;;;26.90;99.90;;;;;;5077756;28;20292;-94
2022/09/04 10:55:35;;;;;;;3.40;3.08;;;27.20;99.90;;;;;;5075019;28;20272;-94
2022/09/04 10:58:24;;;;;;;5.00;2.58;;;27.30;99.90;;;;;;5078670;28;20205;-93
2022/09/04 11:01:14;;;;;;;2.70;2.50;;;27.10;99.90;;;;;;5076771;28;20201;-93
2022/09/04 11:04:02;;;;;;;2.25;2.13;;;26.90;99.90;;;;;;5077049;28;20219;-93
2022/09/04 11:06:56;;;;;;;2.80;2.60;;;26.80;99.90;;;;;;5077551;28;20293;-93
2022/09/04 11:09:58;;;;;;;5.57;3.70;;;26.70;99.90;;;;;;5076845;28;20209;-92
2022/09/04 11:13:29;;;;;;;2.60;2.40;;;26.60;99.90;;;;;;5076786;28;20225;-93
2022/09/04 11:16:20;;;;;;;3.20;2.88;;;26.40;99.90;;;;;;4975803;28;20255;-93
2022/09/04 11:19:22;;;;;;;3.15;2.72;;;26.30;99.90;;;;;;5011756;28;20223;-93
2022/09/04 11:22:33;;;;;;;3.10;2.78;;;26.20;99.90;;;;;;5076646;28;20255;-94
2022/09/04 11:25:55;;;;;;;3.15;2.85;;;26.20;99.90;;;;;;5076610;28;20205;-94
2022/09/04 11:28:55;;;;;;;2.80;2.60;;;26.10;99.90;;;;;;5051505;28;20239;-94
2022/09/04 11:31:47;;;;;;;2.92;2.67;;;26.10;99.90;;;;;;5077470;28;20228;-94
2022/09/04 11:34:52;;;;;;;2.92;2.72;;;26.20;99.90;;;;;;5077891;28;20296;-94
2022/09/04 11:38:07;;;;;;;3.10;2.78;;;25.80;99.90;;;;;;5076075;28;20193;-93
2022/09/04 11:41:15;;;;;;;5.10;3.20;;;25.70;99.90;;;;;;5075377;28;20197;-94
2022/09/04 11:44:02;;;;;;;3.08;2.88;;;25.80;99.90;;;;;;5067351;28;20225;-94
2022/09/04 11:46:52;;;;;;;2.92;2.42;;;25.80;99.90;;;;;;5075943;28;20240;-94
2022/09/04 11:49:52;;;;;;;2.75;2.53;;;25.90;99.90;;;;;;5042879;28;20209;-94
2022/09/04 11:52:27;;;;;;;2.00;1.90;;;26.10;99.90;;;;;;5075757;28;20308;-93
2022/09/04 11:55:37;;;;;;;2.85;2.65;;;26.10;99.90;;;;;;5076239;28;20216;-94
2022/09/04 11:58:27;;;;;;;2.47;2.28;;;26.20;99.90;;;;;;5075632;28;20200;-93
2022/09/04 12:01:08;;;;;;;2.03;1.92;;;26.40;99.90;;;;;;5075808;28;20233;-93
2022/09/04 12:04:03;;;;;;;2.63;2.42;;;26.50;99.90;;;;;;5076023;28;20208;-93
2022/09/04 12:06:50;;;;;;;2.50;2.30;;;26.60;99.90;;;;;;5075138;28;20229;-93
2022/09/04 12:09:44;;;;;;;2.72;2.42;;;26.60;99.90;;;;;;5075860;28;20213;-94
2022/09/04 12:12:33;;;;;;;3.40;3.17;;;26.70;99.90;;;;;;5075499;28;20288;-93
2022/09/04 12:15:54;;;;;;;3.90;3.38;;;26.70;99.90;;;;;;5075379;28;20292;-93
2022/09/04 12:19:12;;;;;;;2.83;2.63;;;26.60;99.90;;;;;;5075323;28;20216;-95
2022/09/04 12:25:52;;;;;;;3.05;2.55;;;26.50;99.90;;;;;;5093875;28;20291;-94
2022/09/04 12:28:57;;;;;;;3.83;3.15;;;26.70;99.90;;;;;;5050353;28;20200;-95
2022/09/04 12:35:32;;;;;;;3.50;3.20;;;27.20;99.90;;;;;;5055658;28;20223;-94
2022/09/04 12:39:02;;;;;;;3.67;3.40;;;27.20;99.90;;;;;;5099627;28;20231;-93
2022/09/04 12:41:39;;;;;;;3.60;3.28;;;27.10;99.90;;;;;;5100958;28;20223;-94
2022/09/04 12:44:20;;;;;;;3.85;3.38;;;27.30;99.90;;;;;;5100844;28;20208;-93
2022/09/04 12:47:04;;;;;;;3.45;3.22;;;27.80;99.90;;;;;;5100991;28;20216;-93
2022/09/04 12:50:07;;;;;;;2.70;2.50;;;27.90;99.90;;;;;;5095174;28;20231;-94
2022/09/04 12:56:46;;;;;;;3.10;2.83;;;27.90;99.90;;;;;;5095166;28;20200;-94
2022/09/04 13:00:00;;;;;;;3.72;2.05;;;27.90;99.90;;;;;;5095216;28;20205;-94
2022/09/04 13:02:43;;;;;;;2.72;2.53;;;27.70;99.90;;;;;;5094782;28;20300;-94
2022/09/04 13:05:30;;;;;;;3.38;2.45;;;27.80;99.90;;;;;;5094832;28;20200;-94
2022/09/04 13:08:08;;;;;;;2.28;2.17;;;27.80;99.90;;;;;;5094291;28;20224;-94
2022/09/04 13:10:45;;;;;;;2.40;2.22;;;27.80;99.90;;;;;;5094573;28;20264;-94
2022/09/04 13:13:24;;;;;;;2.53;2.33;;;27.70;99.90;;;;;;5094892;28;20281;-94
2022/09/04 13:15:59;;;;;;;2.15;1.95;;;27.80;99.90;;;;;;5094701;28;20196;-94
2022/09/04 13:18:45;;;;;;;2.15;2.05;;;27.70;99.90;;;;;;5093673;28;20210;-94
2022/09/04 13:21:25;;;;;;;2.25;2.15;;;27.80;99.90;;;;;;5094337;28;20247;-93
2022/09/04 13:24:13;;;;;;;2.00;1.90;;;27.70;99.90;;;;;;5094358;28;20249;-94
2022/09/04 13:27:06;;;;;;;2.65;2.45;;;27.80;99.90;;;;;;5094473;28;20281;-94
2022/09/04 13:29:53;;;;;;;2.83;2.63;;;27.80;99.90;;;;;;5094272;28;20227;-93
2022/09/04 13:32:44;;;;;;;2.60;2.35;;;27.80;99.90;;;;;;5093967;28;20228;-94
2022/09/04 13:35:23;;;;;;;2.17;1.98;;;27.80;99.90;;;;;;5094543;28;20200;-93
2022/09/04 13:38:08;;;;;;;2.80;2.60;;;27.30;99.90;;;;;;5093923;28;20204;-94
2022/09/04 13:41:02;;;;;;;2.05;1.95;;;27.20;99.90;;;;;;5094171;28;20227;-94
2022/09/04 13:43:53;;;;;;;2.80;2.60;;;27.10;99.90;;;;;;5093920;28;20204;-94
2022/09/04 13:46:27;;;;;;;2.67;2.30;;;26.80;99.90;;;;;;5094421;28;20224;-94
2022/09/04 13:48:59;;;;;;;2.50;2.30;;;26.50;99.90;;;;;;5094025;28;20278;-93
2022/09/04 13:51:31;;;;;;;2.63;2.42;;;26.40;99.90;;;;;;5093730;28;20255;-94
2022/09/04 13:54:06;;;;;;;3.30;3.10;;;26.20;99.90;;;;;;5094092;28;20197;-93
2022/09/04 13:56:38;;;;;;;3.22;3.03;;;26.10;99.90;;;;;;5094393;28;20220;-94
2022/09/04 13:59:09;;;;;;;2.53;2.33;;;26.00;99.90;;;;;;5094022;28;20201;-94
2022/09/04 14:01:44;;;;;;;2.10;2.00;;;25.80;99.90;;;;;;5093854;28;20227;-93
2022/09/04 14:04:18;;;;;;;2.15;2.05;;;25.70;99.90;;;;;;5094292;28;20204;-94
2022/09/04 14:06:47;;;;;;;3.13;2.90;;;25.60;99.90;;;;;;5094335;28;20235;-95
2022/09/04 14:09:17;;;;;;;2.53;2.33;;;25.60;99.90;;;;;;5093581;28;20200;-94
2022/09/04 14:12:18;;;;;;;2.63;2.53;;;25.70;99.90;;;;;;5093691;28;20335;-93
2022/09/04 14:15:21;;;;;;;2.40;2.20;;;25.90;99.90;;;;;;5093527;28;20207;-93
2022/09/04 14:18:01;;;;;;;14.27;3.03;;;26.10;99.90;;;;;;5094533;28;20224;-94
2022/09/04 14:20:33;;;;;;;3.92;3.53;;;26.10;99.90;;;;;;5095784;28;20293;-95
2022/09/04 14:23:11;;;;;;;2.28;2.17;;;26.00;99.90;;;;;;5109234;28;20215;-93
2022/09/04 14:25:49;;;;;;;3.35;2.65;;;26.00;99.90;;;;;;5110830;28;20234;-93
2022/09/04 14:28:25;;;;;;;2.85;2.63;;;25.80;99.90;;;;;;5111544;28;20277;-93
2022/09/04 14:31:05;;;;;;;2.83;2.40;;;25.80;99.90;;;;;;5102991;28;20232;-94
2022/09/04 14:33:49;;;;;;;3.10;2.65;;;25.70;99.90;;;;;;5095140;28;20212;-94
2022/09/04 14:36:34;;;;;;;2.70;2.55;;;25.80;99.90;;;;;;5094644;28;20193;-95
2022/09/04 14:39:20;;;;;;;3.72;2.95;;;25.80;99.90;;;;;;5093779;28;20206;-94
2022/09/04 14:42:06;;;;;;;2.80;2.60;;;25.90;99.90;;;;;;5093606;28;20329;-94
2022/09/04 14:44:47;;;;;;;2.67;2.42;;;26.00;99.90;;;;;;5093490;28;20299;-95
2022/09/04 14:47:29;;;;;;;3.72;2.35;;;25.90;99.90;;;;;;5093715;28;20267;-95